Time;durP1;ratioP1;P1;durP2;ratioP2;P2;SDS_P1;SDS_P2;PMS_P1;PMS_P2;Temp;Humidity;BMP_temperature;BMP_pressure;BME280_temperature;BME280_humidity;BME280_pressure;Samples;Min_cycle;Max_cycle;Signal;HPM_P1;HPM_P2
2022/09/02 00:01:22;;;;;;;5.93;1.75;;;;;;;19.45;59.38;98190.06;4424747;32;20097;-80
2022/09/02 00:03:51;;;;;;;4.47;2.00;;;;;;;18.90;60.75;98189.00;4435834;32;20166;-80
2022/09/02 00:06:18;;;;;;;5.68;1.95;;;;;;;19.47;59.35;98182.94;4424610;32;20496;-80
2022/09/02 00:08:45;;;;;;;5.80;1.70;;;;;;;19.59;58.45;98182.03;4424567;32;20074;-80
2022/09/02 00:11:16;;;;;;;5.65;1.80;;;;;;;19.41;59.38;98183.41;4424106;32;20519;-80
2022/09/02 00:13:43;;;;;;;4.20;1.52;;;;;;;19.32;58.73;98175.28;4424493;32;20468;-79
2022/09/02 00:16:11;;;;;;;3.70;1.70;;;;;;;19.74;57.54;98174.75;4424385;32;20113;-80
2022/09/02 00:18:39;;;;;;;3.75;1.75;;;;;;;20.35;55.90;98173.34;4424009;32;20105;-80
2022/09/02 00:21:12;;;;;;;4.03;1.62;;;;;;;20.39;55.30;98171.31;4424483;32;20174;-80
2022/09/02 00:23:40;;;;;;;4.87;1.60;;;;;;;20.50;54.85;98164.28;4423956;32;20107;-80
2022/09/02 00:26:08;;;;;;;4.32;1.73;;;;;;;20.49;55.21;98170.47;4424285;32;20155;-80
2022/09/02 00:28:35;;;;;;;4.05;1.70;;;;;;;21.31;52.47;98167.22;4424077;32;20165;-80
2022/09/02 00:31:02;;;;;;;2.58;1.50;;;;;;;20.74;52.84;98161.47;4423891;32;20094;-80
2022/09/02 00:33:30;;;;;;;6.03;1.60;;;;;;;20.64;53.08;98162.34;4424097;32;20149;-80
2022/09/02 00:36:01;;;;;;;5.62;1.85;;;;;;;21.19;52.04;98163.81;4423982;32;20141;-80
2022/09/02 00:38:28;;;;;;;4.50;1.90;;;;;;;22.17;50.37;98168.56;4423753;32;20342;-80
2022/09/02 00:40:55;;;;;;;4.62;2.10;;;;;;;22.99;49.94;98169.03;4424112;32;20086;-80
2022/09/02 00:43:36;;;;;;;4.93;1.80;;;;;;;23.20;49.14;98168.88;4423968;32;20110;-80
2022/09/02 00:46:03;;;;;;;5.60;1.90;;;;;;;23.09;49.33;98171.66;4423692;32;20145;-80
2022/09/02 00:48:31;;;;;;;4.78;2.05;;;;;;;23.37;48.13;98173.38;4423886;32;20101;-80
2022/09/02 00:50:58;;;;;;;4.82;1.90;;;;;;;22.70;49.16;98174.28;4423907;32;20142;-80
2022/09/02 00:53:25;;;;;;;4.72;1.62;;;;;;;22.54;50.08;98174.00;4423571;32;20114;-81
2022/09/02 00:55:52;;;;;;;4.37;1.83;;;;;;;23.36;47.73;98168.25;4423733;32;20089;-80
2022/09/02 00:58:25;;;;;;;4.85;1.90;;;;;;;23.03;48.93;98164.31;4423706;32;20145;-80
2022/09/02 01:00:57;;;;;;;4.85;1.70;;;;;;;23.24;47.82;98170.25;4424797;32;20134;-81
2022/09/02 01:03:27;;;;;;;5.40;1.83;;;;;;;22.99;48.21;98165.59;4426140;32;20116;-80
2022/09/02 01:05:56;;;;;;;5.82;1.90;;;;;;;22.96;48.50;98171.09;4425788;32;20135;-81
2022/09/02 01:08:31;;;;;;;5.32;1.85;;;;;;;22.88;48.98;98163.09;4424802;32;20130;-80
2022/09/02 01:10:59;;;;;;;5.70;1.87;;;;;;;23.30;47.78;98169.69;4424782;32;20093;-80
2022/09/02 01:13:29;;;;;;;2.55;1.60;;;;;;;22.97;48.18;98163.09;4425671;32;20089;-81
2022/09/02 01:16:11;;;;;;;5.37;1.90;;;;;;;23.17;47.98;98163.03;4425875;32;20099;-80
2022/09/02 01:18:38;;;;;;;3.40;1.58;;;;;;;22.82;48.66;98159.19;4424815;32;20432;-80
2022/09/02 01:21:05;;;;;;;4.60;1.80;;;;;;;22.86;48.93;98165.03;4437182;32;20415;-81
2022/09/02 01:23:33;;;;;;;6.95;2.20;;;;;;;22.81;49.07;98161.00;4425971;32;20116;-80
2022/09/02 01:26:00;;;;;;;5.53;1.90;;;;;;;22.93;48.65;98172.22;4424793;32;20147;-80
2022/09/02 01:28:27;;;;;;;5.85;1.70;;;;;;;23.25;47.77;98165.81;4425549;32;20130;-81
2022/09/02 01:30:54;;;;;;;4.10;1.80;;;;;;;23.81;46.75;98160.50;4425873;32;20106;-80
2022/09/02 01:33:22;;;;;;;3.35;1.80;;;;;;;23.67;47.70;98161.81;4425890;32;20110;-80
2022/09/02 01:35:52;;;;;;;4.15;1.67;;;;;;;23.19;48.90;98166.38;4425477;32;20090;-80
2022/09/02 01:38:19;;;;;;;4.47;1.70;;;;;;;22.96;50.09;98164.03;4425781;32;20109;-80
2022/09/02 01:40:46;;;;;;;3.05;1.58;;;;;;;22.87;50.63;98167.53;4425582;32;20159;-81
2022/09/02 01:43:17;;;;;;;5.22;1.83;;;;;;;23.09;49.84;98156.69;4425831;32;20102;-80
2022/09/02 01:45:45;;;;;;;3.78;1.90;;;;;;;22.86;49.98;98165.84;4425641;32;20551;-80
2022/09/02 01:48:13;;;;;;;4.50;2.00;;;;;;;22.62;50.95;98160.16;4425442;32;20129;-80
2022/09/02 01:51:00;;;;;;;3.80;1.98;;;;;;;22.23;51.93;98160.97;4425771;32;20109;-80
2022/09/02 01:53:28;;;;;;;5.72;1.85;;;;;;;22.48;50.71;98158.78;4425799;32;20153;-80
2022/09/02 01:55:55;;;;;;;6.60;1.90;;;;;;;22.36;51.40;98160.72;4425389;32;20100;-80
2022/09/02 01:58:22;;;;;;;4.95;2.08;;;;;;;22.42;51.33;98151.44;4425522;32;20157;-80
2022/09/02 02:00:49;;;;;;;4.40;1.83;;;;;;;21.87;52.32;98151.84;4425614;32;20166;-80
2022/09/02 02:03:17;;;;;;;3.92;2.00;;;;;;;22.42;51.28;98154.06;4425461;32;20110;-81
2022/09/02 02:05:43;;;;;;;7.37;2.00;;;;;;;22.59;50.66;98158.66;4425572;32;20682;-80
2022/09/02 02:08:10;;;;;;;3.67;1.80;;;;;;;22.34;51.30;98149.50;4425562;32;20147;-80
2022/09/02 02:10:41;;;;;;;4.25;1.67;;;;;;;22.31;50.80;98154.19;4425003;32;20169;-80
2022/09/02 02:13:08;;;;;;;6.78;1.90;;;;;;;22.47;50.70;98146.59;4424868;32;20153;-80
2022/09/02 02:15:37;;;;;;;6.78;1.80;;;;;;;22.42;50.22;98151.44;4425349;32;20100;-80
2022/09/02 02:18:04;;;;;;;5.37;1.75;;;;;;;21.78;51.92;98150.03;4425253;32;20372;-80
2022/09/02 02:20:31;;;;;;;6.03;1.80;;;;;;;22.11;51.71;98146.25;4425510;32;20569;-80
2022/09/02 02:22:58;;;;;;;5.43;2.00;;;;;;;22.35;51.24;98148.53;4425273;32;20508;-81
2022/09/02 02:25:26;;;;;;;6.93;2.05;;;;;;;22.11;51.41;98142.81;4425516;32;20085;-80
2022/09/02 02:27:53;;;;;;;4.20;1.83;;;;;;;22.26;51.02;98149.34;4425344;32;20107;-80
2022/09/02 02:30:22;;;;;;;4.47;1.77;;;;;;;21.95;52.34;98141.50;4425236;32;20094;-80
2022/09/02 02:32:49;;;;;;;6.22;1.80;;;;;;;21.65;52.68;98136.31;4425561;32;20093;-80
2022/09/02 02:35:18;;;;;;;5.32;1.80;;;;;;;21.79;52.86;98141.16;4425257;32;20145;-80
2022/09/02 02:37:48;;;;;;;7.68;2.03;;;;;;;21.34;53.97;98138.09;4425015;32;20449;-80
2022/09/02 02:40:19;;;;;;;5.22;2.05;;;;;;;21.47;53.40;98133.44;4425432;32;20112;-80
2022/09/02 02:42:47;;;;;;;6.62;1.92;;;;;;;21.40;54.14;98132.34;4425466;32;20511;-80
2022/09/02 02:45:14;;;;;;;5.55;2.10;;;;;;;21.21;54.19;98137.44;4425007;32;20156;-80
2022/09/02 02:47:44;;;;;;;4.05;1.85;;;;;;;21.20;54.67;98134.00;4425372;32;20123;-80
2022/09/02 02:50:14;;;;;;;7.15;1.70;;;;;;;21.31;54.19;98135.75;4425436;32;20129;-80
2022/09/02 02:52:42;;;;;;;4.32;1.80;;;;;;;21.75;51.55;98138.97;4425152;32;20121;-81
2022/09/02 02:55:11;;;;;;;7.00;1.70;;;;;;;21.80;52.24;98134.97;4425125;32;20452;-80
2022/09/02 02:57:39;;;;;;;3.03;1.73;;;;;;;22.16;51.31;98138.81;4425268;32;20077;-80
2022/09/02 03:00:12;;;;;;;4.90;1.85;;;;;;;21.95;52.17;98138.88;4425022;32;20145;-80
2022/09/02 03:02:39;;;;;;;4.57;1.60;;;;;;;21.87;51.88;98133.47;4425395;32;20125;-80
2022/09/02 03:05:07;;;;;;;5.47;1.60;;;;;;;22.06;51.71;98131.84;4424903;32;20121;-80
2022/09/02 03:07:35;;;;;;;5.95;1.90;;;;;;;21.51;53.47;98128.78;4425228;32;20519;-80
2022/09/02 03:10:05;;;;;;;5.70;1.80;;;;;;;21.44;53.89;98130.28;4424553;32;20121;-80
2022/09/02 03:12:34;;;;;;;5.25;2.00;;;;;;;21.35;54.60;98126.63;4422759;32;20456;-80
2022/09/02 03:15:01;;;;;;;7.95;1.98;;;;;;;21.52;54.32;98127.81;4435545;32;20593;-80
2022/09/02 03:17:28;;;;;;;7.45;1.75;;;;;;;21.77;53.56;98124.72;4423994;32;20120;-80
2022/09/02 03:19:58;;;;;;;4.32;1.70;;;;;;;21.59;53.44;98128.97;4423672;32;20444;-81
2022/09/02 03:22:26;;;;;;;4.50;1.60;;;;;;;21.98;52.34;98126.44;4424019;32;20108;-80
2022/09/02 03:24:53;;;;;;;5.85;2.00;;;;;;;21.76;53.19;98120.44;4423656;32;20180;-80
2022/09/02 03:27:20;;;;;;;5.15;1.80;;;;;;;21.80;52.84;98127.09;4423692;32;20165;-81
2022/09/02 03:29:47;;;;;;;5.53;1.85;;;;;;;22.57;50.05;98129.03;4423971;32;20142;-80
2022/09/02 03:32:14;;;;;;;4.70;1.75;;;;;;;21.89;51.48;98128.91;4423923;32;20183;-80
2022/09/02 03:34:41;;;;;;;6.32;1.73;;;;;;;22.05;51.14;98125.78;4423450;32;20172;-80
2022/09/02 03:37:08;;;;;;;6.47;2.42;;;;;;;21.89;51.60;98128.91;4423771;32;20134;-80
2022/09/02 03:39:38;;;;;;;5.40;1.73;;;;;;;22.25;51.01;98136.34;4423779;32;20129;-80
2022/09/02 03:42:06;;;;;;;3.20;1.73;;;;;;;22.39;50.26;98135.94;4423616;32;20165;-81
2022/09/02 03:44:45;;;;;;;5.57;1.70;;;;;;;22.20;50.93;98132.31;4423680;32;20089;-80
2022/09/02 03:47:12;;;;;;;5.53;1.65;;;;;;;22.20;51.03;98129.69;4423362;32;20116;-80
2022/09/02 03:49:39;;;;;;;4.53;2.03;;;;;;;23.00;48.98;98133.03;4423728;32;20364;-80
2022/09/02 03:52:09;;;;;;;3.97;1.65;;;;;;;22.41;50.01;98129.56;4423648;32;20158;-80
2022/09/02 03:54:36;;;;;;;4.60;1.83;;;;;;;23.12;49.53;98133.69;4423312;32;20094;-81
2022/09/02 03:57:03;;;;;;;5.00;1.60;;;;;;;22.70;49.96;98129.56;4423535;32;20077;-80
2022/09/02 03:59:31;;;;;;;3.25;1.60;;;;;;;22.95;48.67;98143.13;4423519;32;20102;-80
2022/09/02 04:02:01;;;;;;;5.20;1.80;;;;;;;23.04;48.14;98147.56;4423276;32;20153;-81
2022/09/02 04:04:29;;;;;;;3.35;1.50;;;;;;;21.95;50.65;98146.75;4423466;32;20191;-80
2022/09/02 04:06:57;;;;;;;3.65;1.70;;;;;;;22.49;50.74;98145.50;4423501;32;20082;-80
2022/09/02 04:09:24;;;;;;;4.07;1.70;;;;;;;22.28;51.69;98151.84;4416058;32;224193;-81
2022/09/02 04:11:51;;;;;;;5.60;1.60;;;;;;;22.26;51.25;98159.88;4424707;32;20089;-79
2022/09/02 04:14:18;;;;;;;5.00;1.70;;;;;;;22.09;51.70;98155.25;4424362;32;20093;-79
2022/09/02 04:16:45;;;;;;;2.90;1.50;;;;;;;21.55;53.33;98154.63;4424030;32;20149;-79
2022/09/02 04:19:12;;;;;;;4.80;1.60;;;;;;;21.53;53.01;98159.19;4424224;32;20126;-79
2022/09/02 04:21:40;;;;;;;4.35;1.50;;;;;;;21.37;54.02;98157.06;4424408;32;20152;-79
2022/09/02 04:24:08;;;;;;;4.40;2.00;;;;;;;21.69;53.97;98158.69;4423969;32;20124;-79
2022/09/02 04:26:36;;;;;;;4.65;1.70;;;;;;;21.77;53.32;98158.88;4424307;32;20522;-79
2022/09/02 04:29:10;;;;;;;3.85;1.65;;;;;;;21.78;53.61;98164.94;4423872;32;20144;-79
2022/09/02 04:31:37;;;;;;;4.50;1.60;;;;;;;21.63;54.52;98169.75;4424294;32;20121;-79
2022/09/02 04:34:05;;;;;;;4.15;1.77;;;;;;;22.04;53.42;98167.94;4410425;32;20158;-79
2022/09/02 04:36:32;;;;;;;4.18;1.80;;;;;;;21.95;53.10;98166.94;4425401;32;20090;-79
2022/09/02 04:39:00;;;;;;;2.40;1.48;;;;;;;22.51;50.81;98172.47;4426204;32;20090;-79
2022/09/02 04:41:29;;;;;;;3.65;1.60;;;;;;;22.55;50.36;98178.31;4426415;32;20150;-79
2022/09/02 04:43:58;;;;;;;6.12;2.03;;;;;;;22.44;51.18;98173.19;4425778;32;20093;-79
2022/09/02 04:46:25;;;;;;;4.75;1.70;;;;;;;22.75;50.38;98169.41;4426232;32;20217;-79
2022/09/02 04:49:01;;;;;;;3.12;1.60;;;;;;;22.67;50.11;98171.13;4426219;32;20089;-79
2022/09/02 04:51:29;;;;;;;4.28;1.80;;;;;;;22.82;49.35;98174.97;4425798;32;20156;-79
2022/09/02 04:53:56;;;;;;;6.85;1.85;;;;;;;22.90;48.63;98182.22;4426037;32;20221;-79
2022/09/02 04:56:26;;;;;;;4.32;1.70;;;;;;;22.09;50.80;98166.59;4437676;32;20158;-79
2022/09/02 04:58:54;;;;;;;1.58;1.23;;;;;;;22.09;50.47;98171.03;4425709;32;20158;-79
2022/09/02 05:01:24;;;;;;;3.85;1.40;;;;;;;22.37;49.90;98179.94;4426122;32;20428;-79
2022/09/02 05:03:52;;;;;;;4.32;1.70;;;;;;;22.20;50.25;98173.53;4426068;32;20082;-79
2022/09/02 05:06:22;;;;;;;2.40;1.55;;;;;;;22.80;48.67;98175.12;4425911;32;20109;-79
2022/09/02 05:08:49;;;;;;;4.25;1.50;;;;;;;22.85;47.52;98174.72;4425994;32;20093;-79
2022/09/02 05:11:18;;;;;;;3.05;1.30;;;;;;;22.77;47.85;98178.03;4425549;32;20105;-79
2022/09/02 05:13:53;;;;;;;6.10;1.60;;;;;;;22.41;48.78;98173.44;4425920;32;20089;-79
2022/09/02 05:16:26;;;;;;;3.45;1.42;;;;;;;22.53;49.04;98182.84;4425966;32;20082;-79
2022/09/02 05:18:53;;;;;;;3.80;1.60;;;;;;;23.13;46.29;98180.94;4425628;32;20098;-80
2022/09/02 05:21:22;;;;;;;3.55;1.50;;;;;;;23.26;45.66;98178.81;4425985;32;20487;-79
2022/09/02 05:23:50;;;;;;;5.65;1.60;;;;;;;23.38;44.09;98169.78;4425807;32;20081;-79
2022/09/02 05:26:20;;;;;;;2.58;1.35;;;;;;;23.09;44.91;98180.37;4425614;32;20519;-79
2022/09/02 05:28:47;;;;;;;5.07;1.58;;;;;;;22.73;47.10;98178.44;4425918;32;20120;-79
2022/09/02 05:31:17;;;;;;;5.10;1.60;;;;;;;22.61;48.83;98179.53;4425827;32;20119;-79
2022/09/02 05:33:44;;;;;;;3.90;1.50;;;;;;;22.83;47.84;98179.25;4425468;32;20138;-79
2022/09/02 05:36:14;;;;;;;3.50;1.67;;;;;;;22.85;47.77;98179.97;4425805;32;20121;-79
2022/09/02 05:38:43;;;;;;;5.55;1.80;;;;;;;23.05;47.82;98180.78;4425670;32;20154;-79
2022/09/02 05:41:14;;;;;;;4.65;1.52;;;;;;;22.72;48.68;98180.22;4425519;32;20161;-79
2022/09/02 05:43:45;;;;;;;4.32;1.50;;;;;;;23.47;46.43;98178.63;4425843;32;20086;-79
2022/09/02 05:46:16;;;;;;;5.35;1.60;;;;;;;22.76;48.52;98175.53;4423777;32;20136;-79
2022/09/02 05:51:31;;;;;;;4.93;1.60;;;;;;;23.48;46.22;98176.81;4424463;32;20105;-79
2022/09/02 05:53:59;;;;;;;5.20;1.70;;;;;;;23.03;47.45;98177.47;4425192;32;20467;-79
2022/09/02 05:56:26;;;;;;;4.05;1.90;;;;;;;23.46;47.25;98178.78;4425559;32;20066;-79
2022/09/02 05:58:58;;;;;;;3.28;1.58;;;;;;;23.52;47.51;98179.03;4425204;32;20153;-79
2022/09/02 06:01:28;;;;;;;5.35;1.77;;;;;;;23.79;46.08;98175.62;4425280;32;20140;-79
2022/09/02 06:03:56;;;;;;;2.67;1.48;;;;;;;23.93;45.74;98177.78;4425474;32;20093;-79
2022/09/02 06:06:23;;;;;;;4.12;1.75;;;;;;;24.50;44.14;98170.53;4425516;32;20078;-79
2022/09/02 06:08:50;;;;;;;2.40;1.40;;;;;;;23.42;46.61;98174.78;4424864;32;20557;-79
2022/09/02 06:11:18;;;;;;;8.82;1.90;;;;;;;23.47;45.92;98180.44;4424489;32;20477;-79
2022/09/02 06:16:49;;;;;;;2.58;1.37;;;;;;;23.83;43.64;98170.91;4424581;32;20105;-79
2022/09/02 06:19:16;;;;;;;3.58;1.55;;;;;;;24.29;42.39;98177.88;4425238;32;20112;-79
2022/09/02 06:21:47;;;;;;;4.55;1.60;;;;;;;23.87;44.16;98173.09;4424830;32;20098;-79
2022/09/02 06:24:14;;;;;;;2.95;1.60;;;;;;;23.85;43.77;98177.69;4436777;32;20127;-78
2022/09/02 06:26:41;;;;;;;3.95;1.33;;;;;;;23.92;43.01;98178.75;4425447;32;20158;-78
2022/09/02 06:29:09;;;;;;;4.55;1.50;;;;;;;24.12;42.35;98176.00;4425174;32;20181;-78
2022/09/02 06:31:36;;;;;;;3.15;1.37;;;;;;;24.15;42.45;98181.00;4424309;32;20102;-77
2022/09/02 06:34:03;;;;;;;3.70;1.55;;;;;;;24.43;41.90;98185.28;4425358;32;20411;-78
2022/09/02 06:36:31;;;;;;;3.60;1.40;;;;;;;23.88;43.09;98187.09;4424796;32;20144;-78
2022/09/02 06:38:59;;;;;;;4.50;1.50;;;;;;;24.24;41.68;98190.66;4425366;32;20111;-79
2022/09/02 06:41:29;;;;;;;3.20;1.35;;;;;;;24.62;41.37;98186.97;4425434;32;20150;-79
2022/09/02 06:43:57;;;;;;;2.95;1.40;;;;;;;24.96;41.34;98184.44;4423721;32;20097;-79
2022/09/02 06:46:31;;;;;;;2.35;1.30;;;;;;;25.55;39.12;98190.84;4425197;32;20129;-79
2022/09/02 06:48:58;;;;;;;3.62;1.55;;;;;;;25.01;40.31;98184.88;4425405;32;20718;-79
2022/09/02 06:51:45;;;;;;;2.92;1.23;;;;;;;24.66;40.11;98190.94;4424761;32;20140;-79
2022/09/02 06:54:15;;;;;;;4.43;1.10;;;;;;;23.71;41.23;98188.69;4425069;32;20097;-79
2022/09/02 06:56:43;;;;;;;2.17;1.08;;;;;;;25.56;36.67;98187.22;4424559;32;20427;-79
2022/09/02 06:59:16;;;;;;;1.25;0.82;;;;;;;25.16;36.44;98187.78;4424836;32;20514;-79
2022/09/02 07:01:43;;;;;;;2.12;1.12;;;;;;;25.90;36.17;98179.31;4425080;32;20500;-79
2022/09/02 07:06:56;;;;;;;1.58;1.00;;;;;;;24.84;36.36;98180.41;4424031;32;20143;-79
2022/09/02 07:09:31;;;;;;;3.78;1.05;;;;;;;25.74;34.05;98186.34;4423769;32;20182;-79
2022/09/02 07:11:59;;;;;;;2.97;1.05;;;;;;;25.76;34.40;98182.56;4423858;32;20102;-79
2022/09/02 07:14:35;;;;;;;3.17;1.33;;;;;;;24.28;37.92;98186.75;4424200;32;20101;-79
2022/09/02 07:17:02;;;;;;;4.57;1.27;;;;;;;23.75;36.29;98191.88;4423321;32;20503;-79
2022/09/02 07:19:29;;;;;;;4.57;1.10;;;;;;;23.73;35.72;98188.56;4422594;32;20129;-79
2022/09/02 07:21:56;;;;;;;3.92;1.02;;;;;;;23.86;36.45;98189.88;4422903;32;20081;-79
2022/09/02 07:24:23;;;;;;;3.42;1.00;;;;;;;25.01;35.85;98187.50;4422680;32;20463;-79
2022/09/02 07:26:51;;;;;;;1.92;1.02;;;;;;;23.05;39.21;98192.16;4423688;32;20089;-79
2022/09/02 07:29:22;;;;;;;3.67;1.10;;;;;;;24.57;36.30;98191.88;4423874;32;20101;-79
2022/09/02 07:31:49;;;;;;;1.60;1.10;;;;;;;24.63;36.33;98190.44;4423626;32;20097;-79
2022/09/02 07:34:17;;;;;;;5.00;1.42;;;;;;;23.33;37.43;98182.56;4424850;32;20499;-79
2022/09/02 07:36:44;;;;;;;2.47;0.93;;;;;;;22.34;38.86;98186.31;4424788;32;20156;-78
2022/09/02 07:39:12;;;;;;;2.45;1.02;;;;;;;22.36;37.71;98184.38;4424573;32;20108;-79
2022/09/02 07:41:40;;;;;;;4.80;1.10;;;;;;;23.68;38.14;98183.72;4424828;32;20101;-79
2022/09/02 07:44:08;;;;;;;3.10;1.12;;;;;;;24.57;37.33;98189.22;4424731;32;20436;-79
2022/09/02 07:46:36;;;;;;;3.20;1.27;;;;;;;23.15;36.41;98178.16;4424338;32;20107;-79
2022/09/02 07:49:06;;;;;;;3.03;1.30;;;;;;;23.88;35.90;98180.03;4424781;32;20169;-79
2022/09/02 07:51:37;;;;;;;4.45;1.12;;;;;;;23.92;37.29;98186.66;4424787;32;20106;-79
2022/09/02 07:54:05;;;;;;;5.47;1.10;;;;;;;23.56;37.79;98175.12;4424258;32;20107;-79
2022/09/02 07:56:32;;;;;;;3.95;1.50;;;;;;;24.12;35.34;98182.13;4424601;32;20129;-78
2022/09/02 07:59:00;;;;;;;2.78;1.30;;;;;;;22.36;39.60;98179.09;4436232;32;20126;-79
2022/09/02 08:01:26;;;;;;;7.20;1.50;;;;;;;22.16;38.04;98180.03;4423231;32;20501;-79
2022/09/02 08:03:54;;;;;;;4.40;1.08;;;;;;;21.88;39.91;98171.91;4424527;32;20426;-78
2022/09/02 08:06:25;;;;;;;1.98;1.10;;;;;;;22.44;39.86;98181.06;4424637;32;20141;-78
2022/09/02 08:09:05;;;;;;;2.55;1.10;;;;;;;21.83;38.90;98170.66;4424493;32;20112;-79
2022/09/02 08:11:35;;;;;;;4.32;1.40;;;;;;;22.28;38.87;98175.50;4426009;32;20508;-79
2022/09/02 08:14:02;;;;;;;3.15;1.20;;;;;;;23.13;37.83;98177.47;4426006;32;20159;-79
2022/09/02 08:16:29;;;;;;;5.78;1.50;;;;;;;22.98;37.95;98179.72;4426299;32;20077;-78
2022/09/02 08:18:57;;;;;;;1.48;1.00;;;;;;;22.38;37.88;98178.97;4426098;32;20110;-79
2022/09/02 08:21:26;;;;;;;4.00;1.15;;;;;;;23.12;36.88;98179.28;4425860;32;20094;-79
2022/09/02 08:23:54;;;;;;;4.05;1.20;;;;;;;23.73;36.34;98173.59;4426104;32;20089;-79
2022/09/02 08:26:21;;;;;;;2.83;1.10;;;;;;;24.72;35.29;98173.69;4426123;32;20168;-79
2022/09/02 08:28:49;;;;;;;6.22;1.37;;;;;;;25.08;35.27;98180.59;4426015;32;20086;-79
2022/09/02 08:31:15;;;;;;;3.25;1.35;;;;;;;23.71;37.04;98172.88;4426248;32;20428;-79
2022/09/02 08:33:43;;;;;;;2.75;1.33;;;;;;;24.35;35.33;98177.31;4426082;32;20128;-79
2022/09/02 08:36:13;;;;;;;3.75;1.33;;;;;;;25.58;33.45;98187.87;4425543;32;20081;-78
2022/09/02 08:38:41;;;;;;;4.28;1.60;;;;;;;24.75;33.30;98182.13;4426223;32;20132;-79
2022/09/02 08:41:32;;;;;;;4.40;1.83;;;;;;;26.03;32.05;98178.84;4426277;32;20097;-78
2022/09/02 08:44:00;;;;;;;3.33;1.25;;;;;;;24.39;34.52;98180.47;4425822;32;20124;-78
2022/09/02 08:46:30;;;;;;;5.18;1.40;;;;;;;26.45;32.19;98183.31;4425993;32;20149;-78
2022/09/02 08:49:09;;;;;;;3.90;1.37;;;;;;;24.68;33.90;98177.63;4425751;32;20156;-79
2022/09/02 08:51:50;;;;;;;3.40;1.60;;;;;;;25.27;33.18;98178.78;4437698;32;20110;-79
2022/09/02 08:54:34;;;;;;;4.07;1.25;;;;;;;25.77;33.42;98171.00;4425018;32;20090;-79
2022/09/02 08:57:01;;;;;;;2.28;1.50;;;;;;;25.12;34.95;98180.31;4425678;32;20145;-80
2022/09/02 08:59:30;;;;;;;4.22;1.40;;;;;;;24.73;35.03;98167.44;4426074;32;20129;-79
2022/09/02 09:02:06;;;;;;;3.87;1.60;;;;;;;25.04;35.19;98168.72;4425974;32;20151;-79
2022/09/02 09:04:52;;;;;;;3.42;1.52;;;;;;;25.79;32.59;98170.84;4425716;32;20105;-80
2022/09/02 09:07:32;;;;;;;3.03;1.50;;;;;;;24.93;34.14;98168.94;4426142;32;20077;-79
2022/09/02 09:10:04;;;;;;;4.07;1.55;;;;;;;24.71;35.55;98166.75;4425477;32;20102;-79
2022/09/02 09:12:34;;;;;;;3.55;1.40;;;;;;;24.65;34.34;98170.00;4426111;32;20110;-79
2022/09/02 09:15:27;;;;;;;4.00;1.48;;;;;;;24.37;34.71;98170.06;4425792;32;20173;-79
2022/09/02 09:17:57;;;;;;;3.22;1.30;;;;;;;25.50;32.71;98163.22;4425456;32;20132;-79
2022/09/02 09:20:32;;;;;;;4.35;1.50;;;;;;;26.95;30.25;98172.59;4424814;32;20113;-79
2022/09/02 09:23:08;;;;;;;3.80;1.40;;;;;;;28.15;29.74;98165.53;4424674;32;20539;-79
2022/09/02 09:25:35;;;;;;;4.10;1.30;;;;;;;27.00;31.57;98164.97;4424151;32;20093;-80
2022/09/02 09:28:02;;;;;;;5.50;1.50;;;;;;;27.49;29.86;98153.53;4425905;32;20432;-78
2022/09/02 09:30:31;;;;;;;5.07;1.50;;;;;;;27.87;30.65;98162.53;4425788;32;20090;-78
2022/09/02 09:32:59;;;;;;;2.87;1.23;;;;;;;27.42;30.74;98157.84;4425522;32;20085;-78
2022/09/02 09:35:46;;;;;;;2.17;1.30;;;;;;;27.39;32.86;98165.13;4425750;32;20093;-79
2022/09/02 09:38:13;;;;;;;2.25;1.50;;;;;;;24.89;34.19;98151.75;4425537;32;20103;-79
2022/09/02 09:40:40;;;;;;;3.78;1.40;;;;;;;24.91;34.39;98157.69;4425791;32;20447;-78
2022/09/02 09:43:12;;;;;;;3.45;1.50;;;;;;;25.86;32.64;98145.44;4425800;32;20115;-79
2022/09/02 09:45:45;;;;;;;2.62;1.23;;;;;;;28.24;29.80;98153.91;4425332;32;20097;-79
2022/09/02 09:48:18;;;;;;;4.87;1.58;;;;;;;28.60;28.32;98156.81;4424636;32;20086;-79
2022/09/02 09:50:54;;;;;;;6.55;1.20;;;;;;;28.14;29.19;98143.50;4424282;32;20472;-80
2022/09/02 09:53:29;;;;;;;2.90;1.48;;;;;;;25.61;34.32;98150.56;4424849;32;20109;-79
2022/09/02 09:56:05;;;;;;;2.75;1.45;;;;;;;26.27;32.63;98145.56;4422445;32;20107;-79
2022/09/02 09:58:38;;;;;;;2.15;1.27;;;;;;;26.90;30.38;98147.59;4436363;32;20432;-79
2022/09/02 10:01:30;;;;;;;3.28;1.30;;;;;;;27.62;29.27;98143.19;4423688;32;20492;-79
2022/09/02 10:04:22;;;;;;;4.00;1.30;;;;;;;28.08;28.63;98133.59;4423784;32;20162;-79
2022/09/02 10:07:10;;;;;;;2.67;1.40;;;;;;;27.96;28.80;98133.13;4423592;32;20156;-80
2022/09/02 10:09:37;;;;;;;2.75;1.30;;;;;;;27.15;30.92;98145.81;4425061;32;20124;-80
2022/09/02 10:12:10;;;;;;;2.60;1.40;;;;;;;28.53;29.02;98140.81;4424460;32;20117;-79
2022/09/02 10:14:41;;;;;;;3.95;1.50;;;;;;;27.73;29.95;98137.56;4425087;32;20106;-80
2022/09/02 10:17:20;;;;;;;4.20;1.40;;;;;;;28.76;28.54;98138.12;4425276;32;20098;-80
2022/09/02 10:20:01;;;;;;;4.85;1.40;;;;;;;28.22;28.69;98138.16;4424298;32;20146;-80
2022/09/02 10:22:36;;;;;;;5.62;1.40;;;;;;;27.92;28.71;98145.09;4436871;32;20110;-80
2022/09/02 10:25:23;;;;;;;3.40;1.48;;;;;;;27.37;30.94;98139.81;4424046;32;20089;-79
2022/09/02 10:28:21;;;;;;;3.05;1.50;;;;;;;28.19;28.52;98141.16;4425144;32;20086;-80
2022/09/02 10:31:24;;;;;;;3.75;1.30;;;;;;;29.30;27.33;98140.66;4425440;32;20101;-80
2022/09/02 10:34:07;;;;;;;2.67;1.30;;;;;;;29.96;26.78;98146.06;4436014;32;20154;-80
2022/09/02 10:36:53;;;;;;;4.93;1.30;;;;;;;30.85;24.35;98145.84;4424124;32;20109;-80
2022/09/02 10:39:32;;;;;;;1.70;1.30;;;;;;;30.79;24.33;98140.25;4424339;32;20169;-80
2022/09/02 10:42:26;;;;;;;4.03;1.30;;;;;;;27.63;28.32;98132.44;4423942;32;20227;-79
2022/09/02 10:44:53;;;;;;;2.97;1.30;;;;;;;28.34;25.58;98132.47;4423906;32;20149;-80
2022/09/02 10:47:36;;;;;;;3.72;1.50;;;;;;;28.49;27.14;98134.19;4425168;32;20582;-81
2022/09/02 10:50:14;;;;;;;4.37;1.33;;;;;;;28.71;27.80;98124.59;4423755;32;20504;-80
2022/09/02 10:53:09;;;;;;;2.22;1.40;;;;;;;28.16;26.83;98114.12;4425408;32;20085;-80
2022/09/02 10:55:57;;;;;;;3.55;1.30;;;;;;;29.67;24.63;98121.19;4424788;32;20093;-80
2022/09/02 10:58:44;;;;;;;2.00;1.20;;;;;;;28.35;26.05;98120.84;4425295;32;20107;-81
2022/09/02 11:01:21;;;;;;;3.10;1.45;;;;;;;30.64;25.02;98123.53;4424069;32;20090;-80
2022/09/02 11:04:02;;;;;;;2.75;1.20;;;;;;;29.61;26.65;98118.41;4424720;32;20108;-80
2022/09/02 11:06:31;;;;;;;3.45;1.30;;;;;;;29.10;26.93;98116.44;4423934;32;20114;-80
2022/09/02 11:09:36;;;;;;;2.97;1.65;;;;;;;29.63;26.71;98114.56;4424575;32;20154;-79
2022/09/02 11:12:17;;;;;;;4.10;1.50;;;;;;;29.47;26.08;98117.41;4425160;32;20462;-79
2022/09/02 11:14:59;;;;;;;2.62;1.40;;;;;;;29.00;27.63;98107.06;4425125;32;20125;-80
2022/09/02 11:18:06;;;;;;;4.25;1.58;;;;;;;27.15;30.11;98114.84;4424652;32;20105;-79
2022/09/02 11:20:40;;;;;;;2.65;1.40;;;;;;;28.37;28.18;98100.28;4425145;32;20554;-79
2022/09/02 11:23:19;;;;;;;2.92;1.10;;;;;;;27.74;28.88;98106.56;4424846;32;20103;-80
2022/09/02 11:26:13;;;;;;;2.90;1.60;;;;;;;26.14;30.59;98101.88;4423654;32;20103;-80
2022/09/02 11:29:00;;;;;;;3.60;1.30;;;;;;;26.54;30.48;98105.59;4423779;32;20124;-80
2022/09/02 11:31:39;;;;;;;3.12;1.50;;;;;;;28.94;27.95;98098.03;4436092;32;20168;-79
2022/09/02 11:34:16;;;;;;;1.77;1.17;;;;;;;29.77;26.66;98090.78;4424894;32;20373;-79
2022/09/02 11:36:43;;;;;;;3.28;1.33;;;;;;;25.29;32.42;98089.66;4424799;32;20108;-79
2022/09/02 11:39:28;;;;;;;3.25;1.67;;;;;;;24.38;33.95;98099.69;4424530;32;20112;-79
2022/09/02 11:42:36;;;;;;;2.08;1.15;;;;;;;24.68;33.54;98098.47;4425058;32;20163;-79
2022/09/02 11:45:57;;;;;;;1.80;1.20;;;;;;;24.20;32.19;98097.03;4407932;32;20154;-79
2022/09/02 11:48:39;;;;;;;2.10;1.17;;;;;;;23.41;32.96;98096.75;4407198;32;20085;-79
2022/09/02 11:51:25;;;;;;;2.22;0.85;;;;;;;23.65;32.34;98095.28;4435983;32;20101;-79
2022/09/02 11:53:52;;;;;;;2.60;1.33;;;;;;;24.08;33.11;98091.16;4424740;32;20110;-78
2022/09/02 11:56:29;;;;;;;3.12;1.30;;;;;;;23.84;32.15;98090.91;4423462;32;20176;-79
2022/09/02 11:58:56;;;;;;;2.95;1.25;;;;;;;23.87;31.93;98088.78;4424126;32;20134;-78
2022/09/02 12:01:36;;;;;;;6.00;1.55;;;;;;;24.01;40.00;98097.16;4424504;32;20145;-79
2022/09/02 12:04:12;;;;;;;2.87;1.45;;;;;;;25.49;38.71;98098.16;4424393;32;20106;-78